createdAt,value
2019-05-09T00:00:33.570Z,5128.00
2019-05-09T00:01:33.579Z,5172.00
2019-05-09T00:02:33.677Z,5020.00
2019-05-09T00:03:33.535Z,4968.00
2019-05-09T00:04:33.484Z,4824.00
2019-05-09T00:05:33.472Z,4756.00
2019-05-09T00:06:34.002Z,4532.00
2019-05-09T00:07:33.728Z,4360.00
2019-05-09T00:08:33.536Z,4404.00
2019-05-09T00:09:33.554Z,4512.00
2019-05-09T00:10:39.386Z,4904.00
2019-05-09T00:11:33.594Z,4928.00
2019-05-09T00:12:33.582Z,4956.00
2019-05-09T00:13:34.146Z,4960.00
2019-05-09T00:14:34.200Z,4856.00
2019-05-09T00:15:33.254Z,4844.00
2019-05-09T00:16:33.511Z,4776.00
2019-05-09T00:17:33.755Z,4676.00
2019-05-09T00:18:33.608Z,4536.00
2019-05-09T00:19:33.369Z,4540.00
2019-05-09T00:20:33.186Z,4512.00
2019-05-09T00:21:33.267Z,4448.00
2019-05-09T00:22:33.249Z,4424.00
2019-05-09T00:23:33.215Z,4544.00
2019-05-09T00:24:33.187Z,4392.00
2019-05-09T00:25:34.008Z,4316.00
2019-05-09T00:26:33.900Z,4248.00
2019-05-09T00:27:33.231Z,3988.00
2019-05-09T00:28:33.828Z,3892.00
2019-05-09T00:29:33.481Z,3732.00
2019-05-09T00:30:33.229Z,3680.00
2019-05-09T00:31:33.779Z,3608.00
2019-05-09T00:32:34.063Z,3556.00
2019-05-09T00:33:34.333Z,3412.00
2019-05-09T00:34:33.792Z,3256.00
2019-05-09T00:35:33.852Z,3076.00
2019-05-09T00:36:33.456Z,2980.00
2019-05-09T00:37:33.047Z,2968.00
2019-05-09T00:38:33.342Z,3132.00
2019-05-09T00:39:34.065Z,3252.00
2019-05-09T00:40:34.142Z,3284.00
2019-05-09T00:41:33.071Z,3404.00
2019-05-09T00:42:33.369Z,3560.00
2019-05-09T00:43:34.221Z,3548.00
2019-05-09T00:44:33.887Z,3504.00
2019-05-09T00:45:33.312Z,3492.00
2019-05-09T00:46:34.053Z,3556.00
2019-05-09T00:47:32.982Z,3616.00
2019-05-09T00:48:33.689Z,3720.00
2019-05-09T00:49:34.143Z,3796.00
2019-05-09T00:50:33.990Z,3808.00
2019-05-09T00:51:33.904Z,3764.00
2019-05-09T00:52:33.934Z,3836.00
2019-05-09T00:53:33.882Z,3884.00
2019-05-09T00:54:33.491Z,3936.00
2019-05-09T00:55:33.237Z,4280.00
2019-05-09T00:56:33.127Z,4288.00
2019-05-09T00:57:33.484Z,4304.00
2019-05-09T00:58:33.401Z,4316.00
2019-05-09T00:59:33.289Z,4264.00
2019-05-09T01:00:33.357Z,4224.00
2019-05-09T01:01:34.080Z,4156.00
2019-05-09T01:02:34.046Z,4020.00
2019-05-09T01:03:33.996Z,3848.00
2019-05-09T01:04:33.329Z,3796.00
2019-05-09T01:05:34.090Z,3820.00
2019-05-09T01:06:34.056Z,3848.00
2019-05-09T01:07:33.680Z,3904.00
2019-05-09T01:08:33.487Z,4000.00
2019-05-09T01:09:33.375Z,4024.00
2019-05-09T01:10:34.118Z,4004.00
2019-05-09T01:11:33.290Z,3988.00
2019-05-09T01:12:34.111Z,4020.00
2019-05-09T01:13:34.082Z,4156.00
2019-05-09T01:14:33.924Z,4264.00
2019-05-09T01:15:33.410Z,4276.00
2019-05-09T01:16:33.474Z,4396.00
2019-05-09T01:17:33.512Z,4464.00
2019-05-09T01:18:33.144Z,4468.00
2019-05-09T01:19:33.874Z,4432.00
2019-05-09T01:20:33.335Z,4440.00
2019-05-09T01:21:33.327Z,4412.00
2019-05-09T01:22:33.109Z,4332.00
2019-05-09T01:23:34.042Z,4368.00
2019-05-09T01:24:33.751Z,4384.00
2019-05-09T01:25:33.501Z,3884.00
2019-05-09T01:26:33.387Z,3864.00
2019-05-09T01:29:04.381Z,3880.00
2019-05-09T01:30:04.514Z,3880.00
2019-05-09T01:31:55.451Z,3928.00
2019-05-09T01:32:55.340Z,3876.00
2019-05-09T01:34:47.824Z,3836.00
2019-05-09T01:35:47.625Z,3988.00
2019-05-09T01:37:39.990Z,4092.00
2019-05-09T01:38:39.955Z,4116.00
2019-05-09T01:40:33.205Z,4140.00
2019-05-09T01:41:34.084Z,4212.00
2019-05-09T01:43:24.673Z,4396.00
2019-05-09T01:44:24.672Z,4596.00
2019-05-09T01:46:17.317Z,4900.00
2019-05-09T01:47:17.026Z,4696.00
2019-05-09T01:49:09.955Z,4824.00
2019-05-09T01:50:09.322Z,4404.00
2019-05-09T01:52:03.384Z,4420.00
2019-05-09T01:53:03.857Z,4024.00
2019-05-09T01:54:54.176Z,3092.00
2019-05-09T01:55:54.042Z,2576.00
2019-05-09T01:57:47.988Z,3040.00
2019-05-09T01:58:46.337Z,3752.00
2019-05-09T02:00:38.707Z,3904.00
2019-05-09T02:01:38.707Z,4012.00
2019-05-09T02:05:03.993Z,3836.00
2019-05-09T02:06:03.547Z,3932.00
2019-05-09T02:07:54.274Z,3700.00
2019-05-09T02:08:54.654Z,3572.00
2019-05-09T02:10:46.391Z,3820.00
2019-05-09T02:11:46.296Z,3548.00
2019-05-09T02:13:38.715Z,3420.00
2019-05-09T02:14:38.618Z,3456.00
2019-05-09T02:16:31.162Z,3788.00
2019-05-09T02:17:30.947Z,3824.00
2019-05-09T02:19:24.158Z,3852.00
2019-05-09T02:20:24.244Z,3940.00
2019-05-09T02:22:16.467Z,3972.00
2019-05-09T02:23:16.210Z,3920.00
2019-05-09T02:25:08.568Z,3892.00
2019-05-09T02:26:08.560Z,3780.00
2019-05-09T02:28:03.350Z,3800.00
2019-05-09T02:29:03.081Z,3796.00
2019-05-09T02:32:24.284Z,3872.00
2019-05-09T02:33:25.080Z,3808.00
2019-05-09T02:35:16.916Z,3004.00
2019-05-09T02:36:18.945Z,2976.00
2019-05-09T02:37:18.679Z,2920.00
2019-05-09T02:38:19.729Z,2692.00
2019-05-09T02:39:18.891Z,2708.00
2019-05-09T02:40:18.748Z,3092.00
2019-05-09T02:41:19.494Z,3888.00
2019-05-09T02:42:19.582Z,3424.00
2019-05-09T02:43:18.736Z,4040.00
2019-05-09T02:44:19.312Z,4048.00
2019-05-09T02:45:19.175Z,3900.00
2019-05-09T02:46:18.793Z,3756.00
2019-05-09T02:47:18.012Z,3644.00
2019-05-09T02:48:18.619Z,3436.00
2019-05-09T02:49:18.925Z,3108.00
2019-05-09T02:50:19.530Z,2760.00
2019-05-09T02:51:18.545Z,3164.00
2019-05-09T02:52:19.442Z,3316.00
2019-05-09T02:53:18.979Z,3164.00
2019-05-09T02:54:19.162Z,3176.00
2019-05-09T02:55:18.456Z,3020.00
2019-05-09T02:56:18.832Z,2984.00
2019-05-09T02:57:18.528Z,2932.00
2019-05-09T02:58:20.385Z,3060.00
2019-05-09T02:59:18.906Z,2772.00
2019-05-09T03:00:19.686Z,2876.00
2019-05-09T03:01:18.943Z,3160.00
2019-05-09T03:02:19.269Z,3028.00
2019-05-09T03:03:19.537Z,3100.00
2019-05-09T03:04:18.878Z,3000.00
2019-05-09T03:05:19.232Z,3212.00
2019-05-09T03:06:19.261Z,3372.00
2019-05-09T03:07:18.885Z,3580.00
2019-05-09T03:08:18.996Z,3596.00
2019-05-09T03:09:19.020Z,3556.00
2019-05-09T03:10:19.119Z,3380.00
2019-05-09T03:11:18.684Z,3364.00
2019-05-09T03:12:26.777Z,3064.00
2019-05-09T03:13:19.071Z,3096.00
2019-05-09T03:14:19.244Z,3084.00
2019-05-09T03:15:18.561Z,3112.00
2019-05-09T03:16:19.052Z,3116.00
2019-05-09T03:17:18.436Z,3044.00
2019-05-09T03:18:18.374Z,2812.00
2019-05-09T03:19:19.110Z,2572.00
2019-05-09T03:20:18.221Z,2448.00
2019-05-09T03:21:19.017Z,2664.00
2019-05-09T03:22:18.685Z,3068.00
2019-05-09T03:23:18.875Z,2436.00
2019-05-09T03:24:18.464Z,2244.00
2019-05-09T03:25:19.006Z,2504.00
2019-05-09T03:26:19.213Z,2460.00
2019-05-09T03:27:18.709Z,2704.00
2019-05-09T03:28:18.435Z,2796.00
2019-05-09T03:29:18.814Z,2872.00
2019-05-09T03:30:20.406Z,2832.00
2019-05-09T03:31:19.489Z,2876.00
2019-05-09T03:32:19.092Z,2672.00
2019-05-09T03:33:19.838Z,2716.00
2019-05-09T03:34:19.268Z,2596.00
2019-05-09T03:35:17.273Z,2452.00
2019-05-09T03:36:18.020Z,2412.00
2019-05-09T03:37:17.648Z,2320.00
2019-05-09T03:38:17.825Z,2340.00
2019-05-09T03:39:18.365Z,2396.00
2019-05-09T03:40:17.958Z,2464.00
2019-05-09T03:41:17.718Z,2520.00
2019-05-09T03:42:20.653Z,2584.00
2019-05-09T03:43:18.176Z,2564.00
2019-05-09T03:44:17.843Z,2480.00
2019-05-09T03:45:18.089Z,2404.00
2019-05-09T03:46:18.040Z,2312.00
2019-05-09T03:47:17.329Z,2284.00
2019-05-09T03:48:17.943Z,2184.00
2019-05-09T03:49:17.909Z,2072.00
2019-05-09T03:50:17.752Z,2044.00
2019-05-09T03:51:18.217Z,2060.00
2019-05-09T03:52:17.753Z,2096.00
2019-05-09T03:53:18.299Z,2068.00
2019-05-09T03:54:18.170Z,2104.00
2019-05-09T03:55:17.919Z,2096.00
2019-05-09T03:56:18.027Z,2168.00
2019-05-09T03:57:17.897Z,2304.00
2019-05-09T03:58:18.293Z,2424.00
2019-05-09T03:59:17.636Z,2372.00
2019-05-09T04:00:17.948Z,2332.00
2019-05-09T04:01:17.512Z,2220.00
2019-05-09T04:02:17.801Z,2072.00
2019-05-09T04:03:19.838Z,1964.00
2019-05-09T04:04:17.359Z,1784.00
2019-05-09T04:05:17.974Z,1784.00
2019-05-09T04:06:18.278Z,1812.00
2019-05-09T04:07:15.816Z,1780.00
2019-05-09T04:08:17.938Z,1640.00
2019-05-09T04:09:17.861Z,1740.00
2019-05-09T04:10:17.912Z,1700.00
2019-05-09T04:11:15.787Z,1628.00
2019-05-09T04:12:17.954Z,1600.00
2019-05-09T04:13:18.032Z,1736.00
2019-05-09T04:14:17.558Z,1740.00
2019-05-09T04:15:18.840Z,1664.00
2019-05-09T04:16:17.365Z,1696.00
2019-05-09T04:17:18.043Z,1688.00
2019-05-09T04:18:17.690Z,1664.00
2019-05-09T04:19:17.479Z,1692.00
2019-05-09T04:20:17.511Z,1700.00
2019-05-09T04:21:17.547Z,1692.00
2019-05-09T04:22:18.018Z,1720.00
2019-05-09T04:23:15.689Z,1720.00
2019-05-09T04:24:17.582Z,1680.00
2019-05-09T04:25:17.966Z,1640.00
2019-05-09T04:26:17.508Z,1604.00
2019-05-09T04:27:17.700Z,1604.00
2019-05-09T04:28:17.640Z,1588.00
2019-05-09T04:29:15.614Z,1568.00
2019-05-09T04:30:15.604Z,1596.00
2019-05-09T04:31:17.710Z,1572.00
2019-05-09T04:32:15.597Z,1548.00
2019-05-09T04:33:17.597Z,1568.00
2019-05-09T04:34:15.603Z,1576.00
2019-05-09T04:35:17.445Z,1548.00
2019-05-09T04:36:15.572Z,1544.00
2019-05-09T04:37:17.866Z,1532.00
2019-05-09T04:38:17.753Z,1544.00
2019-05-09T04:39:18.945Z,1508.00
2019-05-09T04:40:17.671Z,1516.00
2019-05-09T04:41:16.307Z,1536.00
2019-05-09T04:42:15.505Z,1596.00
2019-05-09T04:43:18.749Z,1588.00
2019-05-09T04:44:19.303Z,1512.00
2019-05-09T04:45:17.246Z,1484.00
2019-05-09T04:46:20.736Z,1576.00
2019-05-09T04:47:17.370Z,1564.00
2019-05-09T04:48:20.258Z,1608.00
2019-05-09T04:49:15.454Z,1648.00
2019-05-09T04:50:23.104Z,1644.00
2019-05-09T04:51:15.456Z,1680.00
2019-05-09T04:52:15.434Z,1540.00
2019-05-09T04:53:15.419Z,1636.00
2019-05-09T04:54:17.581Z,1696.00
2019-05-09T04:55:15.374Z,1816.00
2019-05-09T04:56:17.412Z,1864.00
2019-05-09T04:57:17.696Z,1856.00
2019-05-09T04:58:15.369Z,1736.00
2019-05-09T04:59:17.679Z,1628.00
2019-05-09T05:00:15.353Z,1600.00
2019-05-09T05:01:19.609Z,1580.00
2019-05-09T05:02:15.308Z,1568.00
2019-05-09T05:03:15.319Z,1600.00
2019-05-09T05:04:15.294Z,1604.00
2019-05-09T05:05:15.291Z,1552.00
2019-05-09T05:06:18.171Z,1564.00
2019-05-09T05:07:15.291Z,1500.00
2019-05-09T05:08:15.287Z,1408.00
2019-05-09T05:09:15.277Z,1372.00
2019-05-09T05:10:15.255Z,1364.00
2019-05-09T05:11:15.245Z,1352.00
2019-05-09T05:12:15.228Z,1260.00
2019-05-09T05:13:25.644Z,1268.00
2019-05-09T05:14:15.199Z,1260.00
2019-05-09T05:15:15.213Z,1292.00
2019-05-09T05:16:15.213Z,1224.00
2019-05-09T05:17:15.191Z,1228.00
2019-05-09T05:18:17.452Z,1220.00
2019-05-09T05:19:15.167Z,1236.00
2019-05-09T05:20:15.164Z,1296.00
2019-05-09T05:21:15.150Z,1368.00
2019-05-09T05:22:15.136Z,1484.00
2019-05-09T05:23:15.150Z,1500.00
2019-05-09T05:24:15.125Z,1512.00
2019-05-09T05:25:17.722Z,1540.00
2019-05-09T05:26:15.110Z,1572.00
2019-05-09T05:27:15.100Z,1628.00
2019-05-09T05:28:15.078Z,1728.00
2019-05-09T05:29:15.059Z,1792.00
2019-05-09T05:30:15.056Z,1868.00
2019-05-09T05:31:15.042Z,1828.00
2019-05-09T05:32:15.044Z,1836.00
2019-05-09T05:33:15.036Z,1956.00
2019-05-09T05:34:15.059Z,2216.00
2019-05-09T05:35:15.019Z,2336.00
2019-05-09T05:36:15.018Z,2396.00
2019-05-09T05:37:15.007Z,2396.00
2019-05-09T05:38:16.998Z,2444.00
2019-05-09T05:39:14.991Z,2512.00
2019-05-09T05:40:14.985Z,2528.00
2019-05-09T05:41:14.981Z,2504.00
2019-05-09T05:42:17.512Z,2520.00
2019-05-09T05:43:17.280Z,2472.00
2019-05-09T05:44:14.926Z,2396.00
2019-05-09T05:45:14.934Z,2316.00
2019-05-09T05:46:14.917Z,2276.00
2019-05-09T05:47:14.912Z,2316.00
2019-05-09T05:48:17.370Z,2440.00
2019-05-09T05:49:14.903Z,2480.00
2019-05-09T05:50:14.906Z,2524.00
2019-05-09T05:51:14.868Z,2540.00
2019-05-09T05:52:14.871Z,2488.00
2019-05-09T05:53:14.860Z,2504.00
2019-05-09T05:54:14.829Z,2600.00
2019-05-09T05:55:14.840Z,2696.00
2019-05-09T05:56:14.814Z,2748.00
2019-05-09T05:57:14.827Z,2756.00
2019-05-09T05:58:14.818Z,2772.00
2019-05-09T05:59:14.805Z,2864.00
2019-05-09T06:00:14.791Z,2940.00
2019-05-09T06:01:14.788Z,3032.00
2019-05-09T06:02:14.783Z,3112.00
2019-05-09T06:03:14.806Z,3140.00
2019-05-09T06:04:14.768Z,3168.00
2019-05-09T06:05:14.731Z,3140.00
2019-05-09T06:06:14.788Z,3088.00
2019-05-09T06:07:14.738Z,3008.00
2019-05-09T06:08:14.735Z,2860.00
2019-05-09T06:09:14.691Z,2760.00
2019-05-09T06:10:14.724Z,2700.00
2019-05-09T06:11:14.696Z,2684.00
2019-05-09T06:12:14.674Z,2744.00
2019-05-09T06:13:14.680Z,2848.00
2019-05-09T06:14:14.678Z,2880.00
2019-05-09T06:15:14.655Z,2880.00
2019-05-09T06:16:14.632Z,2876.00
2019-05-09T06:17:14.644Z,2876.00
2019-05-09T06:18:14.614Z,2844.00
2019-05-09T06:19:14.618Z,2824.00
2019-05-09T06:20:17.572Z,2800.00
2019-05-09T06:21:14.594Z,2732.00
2019-05-09T06:22:14.588Z,2648.00
2019-05-09T06:23:14.576Z,2532.00
2019-05-09T06:24:14.557Z,2432.00
2019-05-09T06:25:14.546Z,2316.00
2019-05-09T06:26:14.549Z,2216.00
2019-05-09T06:27:14.535Z,2224.00
2019-05-09T06:28:14.542Z,2300.00
2019-05-09T06:29:14.546Z,2388.00
2019-05-09T06:30:14.527Z,2440.00
2019-05-09T06:31:14.533Z,2492.00
2019-05-09T06:32:14.501Z,2504.00
2019-05-09T06:33:14.473Z,2488.00
2019-05-09T06:34:14.495Z,2400.00
2019-05-09T06:35:14.493Z,2388.00
2019-05-09T06:36:14.483Z,2428.00
2019-05-09T06:37:14.475Z,2472.00
2019-05-09T06:38:14.446Z,2456.00
2019-05-09T06:39:14.451Z,2460.00
2019-05-09T06:40:14.433Z,2520.00
2019-05-09T06:41:14.754Z,2624.00
2019-05-09T06:42:14.845Z,2660.00
2019-05-09T06:43:14.503Z,2656.00
2019-05-09T06:44:19.616Z,2664.00
2019-05-09T06:45:14.450Z,2668.00
2019-05-09T10:37:52.752Z,608.00
2019-05-09T10:38:52.463Z,608.00
2019-05-09T10:42:18.807Z,664.00
2019-05-09T10:43:34.048Z,692.00
2019-05-09T10:45:11.475Z,760.00
2019-05-09T10:46:15.190Z,776.00
2019-05-09T10:48:04.599Z,724.00
2019-05-09T10:49:04.583Z,676.00
2019-05-09T10:51:04.656Z,600.00
2019-05-09T10:51:58.181Z,560.00
2019-05-09T10:53:51.256Z,520.00
2019-05-09T10:54:51.257Z,512.00
2019-05-09T10:56:44.699Z,540.00
2019-05-09T10:57:44.606Z,564.00
2019-05-09T10:59:37.953Z,580.00
2019-05-09T11:00:39.370Z,604.00
2019-05-09T11:02:31.685Z,584.00
2019-05-09T11:03:31.276Z,564.00
2019-05-09T11:05:24.677Z,600.00
2019-05-09T11:06:24.651Z,600.00
2019-05-09T11:08:18.686Z,584.00
2019-05-09T11:09:18.389Z,596.00
2019-05-09T11:11:11.352Z,668.00
2019-05-09T11:12:11.356Z,692.00
2019-05-09T11:14:04.804Z,700.00
2019-05-09T11:15:04.674Z,716.00
2019-05-09T11:17:07.880Z,680.00
2019-05-09T11:17:58.038Z,676.00
2019-05-09T11:19:52.578Z,672.00
2019-05-09T11:20:52.347Z,656.00
2019-05-09T11:22:45.705Z,628.00
2019-05-09T11:23:45.702Z,576.00
2019-05-09T11:25:39.257Z,504.00
2019-05-09T11:26:39.959Z,512.00
2019-05-09T11:28:32.407Z,488.00
2019-05-09T11:29:32.399Z,468.00
2019-05-09T11:31:25.467Z,408.00
2019-05-09T11:32:27.470Z,380.00
2019-05-09T11:34:18.984Z,352.00
2019-05-09T11:35:21.332Z,344.00
2019-05-09T11:37:12.035Z,328.00
2019-05-09T11:38:12.008Z,324.00
2019-05-09T11:40:05.309Z,308.00
2019-05-09T11:41:05.270Z,312.00
2019-05-09T11:42:58.831Z,324.00
2019-05-09T11:43:59.526Z,320.00
2019-05-09T11:45:51.942Z,308.00
2019-05-09T11:46:51.941Z,304.00
2019-05-09T11:48:45.384Z,288.00
2019-05-09T11:49:47.914Z,280.00
2019-05-09T11:51:38.663Z,268.00
2019-05-09T11:52:38.617Z,264.00
2019-05-09T11:54:32.201Z,256.00
2019-05-09T11:55:36.628Z,244.00
2019-05-09T11:57:27.545Z,224.00
2019-05-09T11:58:25.307Z,216.00
2019-05-09T12:00:18.780Z,212.00
2019-05-09T12:01:19.175Z,208.00
2019-05-09T12:03:12.025Z,208.00
2019-05-09T12:04:12.015Z,204.00
2019-05-09T12:06:07.814Z,204.00
2019-05-09T12:07:07.771Z,196.00
2019-05-09T12:08:58.803Z,192.00
2019-05-09T12:09:58.973Z,188.00
2019-05-09T12:11:51.801Z,180.00
2019-05-09T12:12:51.567Z,176.00
2019-05-09T12:14:44.899Z,168.00
2019-05-09T12:15:44.896Z,164.00
2019-05-09T12:17:51.058Z,160.00
2019-05-09T12:18:38.237Z,160.00
2019-05-09T12:20:31.673Z,160.00
2019-05-09T12:21:31.562Z,156.00
2019-05-09T12:23:25.133Z,160.00
2019-05-09T12:24:24.899Z,156.00
2019-05-09T12:26:18.274Z,156.00
2019-05-09T12:27:18.896Z,152.00
2019-05-09T12:29:11.808Z,156.00
2019-05-09T12:30:11.594Z,152.00
2019-05-09T12:32:04.942Z,152.00
2019-05-09T12:33:04.924Z,148.00
2019-05-09T12:34:58.506Z,148.00
2019-05-09T12:36:00.097Z,152.00
2019-05-09T12:37:51.659Z,152.00
2019-05-09T12:38:51.752Z,152.00
2019-05-09T12:40:45.212Z,152.00
2019-05-09T12:41:44.972Z,152.00
2019-05-09T12:43:38.358Z,152.00
2019-05-09T12:44:38.314Z,152.00
2019-05-09T12:46:31.933Z,152.00
2019-05-09T12:47:31.693Z,152.00
2019-05-09T12:49:28.158Z,152.00
2019-05-09T12:50:29.280Z,152.00
2019-05-09T12:52:20.567Z,152.00
2019-05-09T12:53:20.340Z,152.00
2019-05-09T12:55:13.703Z,148.00
2019-05-09T12:58:01.476Z,148.00
2019-05-09T12:59:01.196Z,148.00
2019-05-09T13:00:54.565Z,148.00
2019-05-09T13:01:54.551Z,152.00
2019-05-09T13:03:48.553Z,148.00
2019-05-09T13:04:47.933Z,152.00
2019-05-09T13:06:42.322Z,148.00
2019-05-09T13:07:42.553Z,148.00
2019-05-09T13:09:35.828Z,148.00
2019-05-09T13:10:37.758Z,148.00
2019-05-09T13:11:35.556Z,148.00
2019-05-09T13:12:38.708Z,148.00
2019-05-09T13:13:35.565Z,148.00
2019-05-09T13:14:37.844Z,148.00
2019-05-09T13:15:38.252Z,152.00
2019-05-09T13:16:47.537Z,148.00
2019-05-09T13:17:35.515Z,148.00
2019-05-09T13:18:37.487Z,148.00
2019-05-09T13:19:37.974Z,148.00
2019-05-09T13:20:38.107Z,152.00
2019-05-09T13:21:38.373Z,152.00
2019-05-09T13:22:35.458Z,152.00
2019-05-09T13:23:35.477Z,148.00
2019-05-09T13:24:37.729Z,148.00
2019-05-09T13:25:37.951Z,148.00
2019-05-09T13:26:38.257Z,152.00
2019-05-09T13:27:35.404Z,148.00
2019-05-09T13:28:37.668Z,152.00
2019-05-09T13:29:37.835Z,148.00
2019-05-09T13:30:37.778Z,152.00
2019-05-09T13:31:37.990Z,152.00
2019-05-09T13:32:37.443Z,152.00
2019-05-09T13:33:38.159Z,152.00
2019-05-09T13:34:37.827Z,152.00
2019-05-09T13:35:35.326Z,148.00
2019-05-09T13:36:35.320Z,148.00
2019-05-09T13:37:38.030Z,148.00
2019-05-09T13:38:37.680Z,152.00
2019-05-09T13:39:35.298Z,152.00
2019-05-09T13:40:35.264Z,148.00
2019-05-09T13:41:37.490Z,152.00
2019-05-09T13:42:35.271Z,148.00
2019-05-09T13:43:35.274Z,152.00
2019-05-09T13:44:39.020Z,152.00
2019-05-09T13:45:35.231Z,152.00
2019-05-09T13:46:35.217Z,148.00
2019-05-09T13:47:35.201Z,148.00
2019-05-09T13:48:57.100Z,152.00
2019-05-09T13:49:35.167Z,148.00
2019-05-09T13:50:35.168Z,148.00
2019-05-09T13:51:35.581Z,148.00
2019-05-09T13:52:35.137Z,152.00
2019-05-09T13:53:35.131Z,148.00
2019-05-09T13:54:35.138Z,152.00
2019-05-09T13:55:35.125Z,148.00
2019-05-09T13:56:35.110Z,148.00
2019-05-09T13:57:35.094Z,148.00
2019-05-09T13:58:35.089Z,152.00
2019-05-09T13:59:37.286Z,148.00
2019-05-09T14:00:35.056Z,152.00
2019-05-09T14:01:35.052Z,148.00
2019-05-09T14:02:35.094Z,148.00
2019-05-09T14:03:35.024Z,148.00
2019-05-09T14:04:35.021Z,152.00
2019-05-09T14:05:35.037Z,152.00
2019-05-09T14:06:35.009Z,148.00
2019-05-09T14:07:37.507Z,148.00
2019-05-09T14:08:34.978Z,148.00
2019-05-09T14:09:34.961Z,152.00
2019-05-09T14:10:34.981Z,152.00
2019-05-09T14:11:34.947Z,148.00
2019-05-09T14:12:34.923Z,148.00
2019-05-09T14:13:34.930Z,148.00
2019-05-09T14:14:34.904Z,152.00
2019-05-09T14:15:34.913Z,148.00
2019-05-09T14:16:34.900Z,148.00
2019-05-09T14:17:48.182Z,148.00
2019-05-09T14:18:34.872Z,148.00
2019-05-09T14:19:44.397Z,152.00
2019-05-09T14:20:34.851Z,152.00
2019-05-09T14:21:34.871Z,152.00
2019-05-09T14:22:34.858Z,148.00
2019-05-09T14:23:37.133Z,152.00
2019-05-09T14:24:34.809Z,152.00
2019-05-09T14:25:34.786Z,148.00
2019-05-09T14:26:34.775Z,148.00
2019-05-09T14:27:34.782Z,152.00
2019-05-09T14:28:34.764Z,152.00
2019-05-09T14:29:34.745Z,152.00
2019-05-09T14:30:34.746Z,148.00
2019-05-09T14:31:34.873Z,152.00
2019-05-09T14:32:35.113Z,152.00
2019-05-09T14:33:34.719Z,152.00
2019-05-09T14:34:34.730Z,152.00
2019-05-09T14:35:34.689Z,152.00
2019-05-09T14:36:34.680Z,152.00
2019-05-09T14:37:34.678Z,152.00
2019-05-09T14:38:34.646Z,152.00
2019-05-09T14:39:34.638Z,152.00
2019-05-09T14:40:34.637Z,152.00
2019-05-09T14:41:34.629Z,152.00
2019-05-09T14:42:34.622Z,152.00
2019-05-09T14:43:34.611Z,152.00
2019-05-09T14:44:34.600Z,152.00
2019-05-09T14:45:34.566Z,152.00
2019-05-09T14:46:34.554Z,152.00
2019-05-09T14:47:38.577Z,148.00
2019-05-09T14:48:34.554Z,148.00
2019-05-09T14:49:43.446Z,152.00
2019-05-09T14:50:34.520Z,152.00
2019-05-09T14:51:34.503Z,152.00
2019-05-09T14:52:34.517Z,152.00
2019-05-09T14:53:34.492Z,152.00
2019-05-09T14:54:34.497Z,152.00
2019-05-09T14:55:34.485Z,152.00
2019-05-09T14:56:34.464Z,152.00
2019-05-09T14:57:34.458Z,152.00
2019-05-09T14:58:34.439Z,152.00
2019-05-09T14:59:34.435Z,152.00
2019-05-09T15:00:34.412Z,148.00
2019-05-09T15:01:34.405Z,152.00
2019-05-09T15:02:34.396Z,152.00
2019-05-09T15:03:34.370Z,152.00
2019-05-09T15:04:34.361Z,148.00
2019-05-09T15:05:34.369Z,152.00
2019-05-09T15:06:34.360Z,4.00
2019-05-09T15:07:34.329Z,0.00
2019-05-09T15:08:34.334Z,0.00
2019-05-09T15:09:34.306Z,0.00
2019-05-09T15:10:34.317Z,0.00
2019-05-09T15:11:34.282Z,0.00
2019-05-09T15:12:34.294Z,0.00
2019-05-09T15:13:34.272Z,0.00
2019-05-09T15:14:34.272Z,0.00
2019-05-09T15:15:34.252Z,0.00
2019-05-09T15:16:34.234Z,0.00
2019-05-09T15:17:34.215Z,0.00
2019-05-09T15:18:34.226Z,0.00
2019-05-09T15:19:34.218Z,0.00
2019-05-09T15:20:34.199Z,0.00
2019-05-09T15:21:34.196Z,0.00
2019-05-09T15:22:34.164Z,0.00
2019-05-09T15:23:34.173Z,0.00
2019-05-09T15:24:34.135Z,0.00
2019-05-09T15:25:34.157Z,0.00
2019-05-09T15:26:34.118Z,0.00
2019-05-09T15:27:34.113Z,0.00
2019-05-09T15:28:34.112Z,0.00
2019-05-09T15:29:34.103Z,0.00
2019-05-09T15:30:34.097Z,0.00
2019-05-09T15:31:34.070Z,0.00
2019-05-09T15:32:34.047Z,0.00
2019-05-09T15:33:34.037Z,0.00
2019-05-09T15:34:34.047Z,0.00
2019-05-09T15:35:34.015Z,0.00
2019-05-09T15:36:34.009Z,0.00
2019-05-09T15:37:33.994Z,0.00
2019-05-09T15:38:33.988Z,0.00
2019-05-09T15:39:33.986Z,0.00
2019-05-09T15:40:33.963Z,0.00
2019-05-09T15:41:33.950Z,0.00
2019-05-09T15:42:33.949Z,0.00
2019-05-09T15:43:33.929Z,0.00
2019-05-09T15:44:33.928Z,0.00
2019-05-09T15:45:33.911Z,0.00
2019-05-09T15:46:33.916Z,0.00
2019-05-09T15:47:33.887Z,0.00
2019-05-09T15:48:33.891Z,0.00
2019-05-09T15:49:33.858Z,0.00
2019-05-09T15:50:33.863Z,0.00
2019-05-09T15:51:33.830Z,0.00
2019-05-09T15:52:33.836Z,0.00
2019-05-09T15:53:33.824Z,0.00
2019-05-09T15:54:33.799Z,0.00
2019-05-09T15:55:33.793Z,0.00
2019-05-09T15:56:33.795Z,0.00
2019-05-09T15:57:33.774Z,0.00
2019-05-09T15:58:33.751Z,0.00
2019-05-09T15:59:33.748Z,0.00
2019-05-09T16:00:33.733Z,0.00
2019-05-09T16:01:33.737Z,0.00
2019-05-09T16:02:34.053Z,0.00
2019-05-09T16:03:33.710Z,0.00
2019-05-09T16:04:33.714Z,0.00
2019-05-09T16:05:33.690Z,0.00
2019-05-09T16:06:33.662Z,0.00
2019-05-09T16:07:33.661Z,0.00
2019-05-09T16:08:33.658Z,0.00
2019-05-09T16:09:33.634Z,0.00
2019-05-09T16:10:33.636Z,0.00
2019-05-09T16:11:33.616Z,0.00
2019-05-09T16:12:33.594Z,0.00
2019-05-09T16:13:33.592Z,0.00
2019-05-09T16:14:33.578Z,0.00
2019-05-09T16:15:33.572Z,0.00
2019-05-09T16:16:33.558Z,0.00
2019-05-09T16:17:33.539Z,0.00
2019-05-09T16:18:33.545Z,0.00
2019-05-09T16:19:33.531Z,0.00
2019-05-09T16:20:37.617Z,0.00
2019-05-09T16:21:33.508Z,0.00
2019-05-09T16:22:33.493Z,0.00
2019-05-09T16:23:33.477Z,0.00
2019-05-09T16:24:33.455Z,0.00
2019-05-09T16:25:33.467Z,0.00
2019-05-09T16:26:33.458Z,0.00
2019-05-09T16:27:33.424Z,0.00
2019-05-09T16:28:33.425Z,0.00
2019-05-09T16:29:33.420Z,0.00
2019-05-09T16:30:33.392Z,0.00
2019-05-09T16:31:33.413Z,0.00
2019-05-09T16:32:33.368Z,0.00
2019-05-09T16:33:33.370Z,0.00
2019-05-09T16:34:33.336Z,0.00
2019-05-09T16:35:33.326Z,0.00
2019-05-09T16:36:33.334Z,0.00
2019-05-09T16:37:52.885Z,0.00
2019-05-09T16:38:43.454Z,0.00
2019-05-09T16:39:33.291Z,0.00
2019-05-09T16:40:33.274Z,0.00
2019-05-09T16:41:33.274Z,0.00
2019-05-09T16:42:33.259Z,0.00
2019-05-09T16:43:33.232Z,0.00
2019-05-09T16:44:33.235Z,0.00
2019-05-09T16:45:33.615Z,0.00
2019-05-09T16:46:33.217Z,0.00
2019-05-09T16:47:33.202Z,0.00
2019-05-09T16:48:33.182Z,0.00
2019-05-09T16:49:33.168Z,0.00
2019-05-09T16:50:33.166Z,0.00
2019-05-09T16:51:33.149Z,0.00
2019-05-09T16:52:33.134Z,0.00
2019-05-09T16:53:33.117Z,0.00
2019-05-09T16:54:33.102Z,0.00
2019-05-09T16:55:33.097Z,0.00
2019-05-09T16:56:33.101Z,0.00
2019-05-09T16:57:33.073Z,0.00
2019-05-09T16:58:33.073Z,0.00
2019-05-09T16:59:33.071Z,0.00
2019-05-09T17:00:33.056Z,0.00
2019-05-09T17:01:33.035Z,0.00
2019-05-09T17:02:33.050Z,0.00
2019-05-09T17:03:33.017Z,0.00
2019-05-09T17:04:32.991Z,0.00
2019-05-09T17:05:32.997Z,0.00
2019-05-09T17:06:32.963Z,0.00
2019-05-09T17:07:32.949Z,0.00
2019-05-09T17:08:32.946Z,0.00
2019-05-09T17:09:32.923Z,0.00
2019-05-09T17:10:32.938Z,0.00
2019-05-09T17:11:32.915Z,0.00
2019-05-09T17:12:32.891Z,0.00
2019-05-09T17:13:32.891Z,0.00
2019-05-09T17:14:32.891Z,0.00
2019-05-09T17:15:32.878Z,0.00
2019-05-09T17:16:32.856Z,0.00
2019-05-09T17:17:32.841Z,0.00
2019-05-09T17:18:32.843Z,0.00
2019-05-09T17:19:32.821Z,0.00
2019-05-09T17:20:32.808Z,0.00
2019-05-09T17:21:32.793Z,0.00
2019-05-09T17:22:35.573Z,0.00
2019-05-09T17:23:32.776Z,0.00
2019-05-09T17:24:32.765Z,0.00
2019-05-09T17:25:32.740Z,0.00
2019-05-09T17:26:32.761Z,0.00
2019-05-09T17:27:32.739Z,0.00
2019-05-09T17:28:32.714Z,0.00
2019-05-09T17:29:32.703Z,0.00